createdAt,value
2023-03-05T00:00:32.112Z,0.52
2023-03-05T00:01:22.184Z,0.52
2023-03-05T00:02:12.272Z,0.52
2023-03-05T00:03:02.531Z,0.52
2023-03-05T00:03:52.673Z,0.53
2023-03-05T00:04:42.633Z,0.52
2023-03-05T00:05:32.662Z,0.51
2023-03-05T00:06:22.761Z,0.51
2023-03-05T00:07:12.808Z,0.51
2023-03-05T00:08:02.851Z,0.52
2023-03-05T00:08:52.878Z,0.52
2023-03-05T00:09:42.977Z,0.51
2023-03-05T00:10:33.007Z,0.50
2023-03-05T00:11:23.079Z,0.53
2023-03-05T00:12:13.328Z,0.51
2023-03-05T00:13:03.374Z,0.51
2023-03-05T00:13:53.400Z,0.52
2023-03-05T00:14:43.502Z,0.53
2023-03-05T00:15:33.530Z,0.52
2023-03-05T00:16:23.660Z,0.52
2023-03-05T00:17:13.678Z,0.51
2023-03-05T00:18:03.759Z,0.52
2023-03-05T00:18:53.798Z,0.52
2023-03-05T00:19:43.857Z,0.52
2023-03-05T00:20:33.878Z,0.53
2023-03-05T00:21:23.973Z,0.51
2023-03-05T00:22:13.989Z,0.51
2023-03-05T00:23:04.093Z,0.51
2023-03-05T00:23:54.118Z,0.52
2023-03-05T00:24:44.238Z,0.52
2023-03-05T00:25:34.235Z,0.52
2023-03-05T00:26:24.320Z,0.51
2023-03-05T00:27:14.349Z,0.52
2023-03-05T00:28:04.646Z,0.51
2023-03-05T00:28:54.679Z,0.52
2023-03-05T00:29:44.783Z,0.51
2023-03-05T00:30:34.822Z,0.51
2023-03-05T00:31:24.979Z,0.51
2023-03-05T00:32:14.951Z,0.50
2023-03-05T00:33:05.049Z,0.51
2023-03-05T00:33:55.079Z,0.52
2023-03-05T00:34:45.160Z,0.51
2023-03-05T00:35:36.052Z,0.50
2023-03-05T00:36:25.273Z,0.52
2023-03-05T00:37:15.289Z,0.52
2023-03-05T00:38:05.366Z,0.52
2023-03-05T00:38:55.427Z,0.52
2023-03-05T00:39:45.500Z,0.53
2023-03-05T00:40:35.578Z,0.52
2023-03-05T00:41:25.589Z,0.52
2023-03-05T00:42:15.624Z,0.53
2023-03-05T00:43:05.700Z,0.52
2023-03-05T00:43:55.738Z,0.51
2023-03-05T00:44:45.806Z,0.55
2023-03-05T00:45:35.825Z,0.52
2023-03-05T00:46:25.917Z,0.54
2023-03-05T00:47:15.927Z,0.52
2023-03-05T00:48:06.011Z,0.53
2023-03-05T00:48:56.062Z,0.53
2023-03-05T00:49:46.138Z,0.52
2023-03-05T00:50:36.441Z,0.52
2023-03-05T00:51:26.479Z,0.52
2023-03-05T00:52:16.514Z,0.52
2023-03-05T00:53:06.582Z,0.51
2023-03-05T00:53:56.609Z,0.52
2023-03-05T00:54:46.730Z,0.52
2023-03-05T00:55:36.741Z,0.52
2023-03-05T00:56:26.780Z,0.53
2023-03-05T00:57:16.819Z,0.52
2023-03-05T00:58:06.863Z,0.52
2023-03-05T00:58:56.893Z,0.50
2023-03-05T00:59:46.992Z,0.52
2023-03-05T01:00:37.022Z,0.52
2023-03-05T01:01:27.116Z,0.51
2023-03-05T01:02:17.148Z,0.50
2023-03-05T01:03:07.164Z,0.52
2023-03-05T01:03:57.197Z,0.53
2023-03-05T01:04:47.370Z,0.53
2023-03-05T01:05:37.402Z,0.53
2023-03-05T01:06:27.635Z,0.52
2023-03-05T01:07:17.670Z,0.52
2023-03-05T01:08:07.710Z,0.52
2023-03-05T01:08:57.745Z,0.51
2023-03-05T01:09:47.839Z,0.53
2023-03-05T01:10:37.903Z,0.51
2023-03-05T01:11:27.937Z,0.53
2023-03-05T01:12:17.961Z,0.53
2023-03-05T01:13:08.043Z,0.53
2023-03-05T01:13:58.079Z,0.53
2023-03-05T01:14:48.146Z,0.51
2023-03-05T01:15:38.173Z,0.52
2023-03-05T01:16:28.304Z,0.51
2023-03-05T01:17:18.313Z,0.52
2023-03-05T01:18:08.390Z,0.51
2023-03-05T01:18:58.414Z,0.51
2023-03-05T01:19:48.541Z,0.51
2023-03-05T01:20:38.544Z,0.51
2023-03-05T01:21:28.631Z,0.51
2023-03-05T01:22:18.914Z,0.52
2023-03-05T01:23:09.016Z,0.53
2023-03-05T01:23:59.030Z,0.52
2023-03-05T01:24:49.379Z,0.52
2023-03-05T01:25:39.415Z,0.52
2023-03-05T01:26:29.518Z,0.53
2023-03-05T01:27:19.543Z,0.50
2023-03-05T01:28:09.571Z,0.51
2023-03-05T01:28:59.614Z,0.51
2023-03-05T01:29:49.669Z,0.51
2023-03-05T01:30:39.701Z,0.51
2023-03-05T01:31:29.836Z,0.51
2023-03-05T01:32:19.848Z,0.52
2023-03-05T01:33:09.889Z,0.52
2023-03-05T01:33:59.924Z,0.52
2023-03-05T01:34:50.037Z,0.53
2023-03-05T01:35:40.142Z,0.52
2023-03-05T01:36:30.095Z,0.52
2023-03-05T01:37:20.129Z,0.51
2023-03-05T01:38:10.205Z,0.51
2023-03-05T01:39:00.245Z,0.52
2023-03-05T01:39:50.335Z,0.52
2023-03-05T01:40:40.621Z,0.51
2023-03-05T01:41:30.707Z,0.51
2023-03-05T01:42:20.755Z,0.53
2023-03-05T01:43:11.078Z,0.51
2023-03-05T01:44:01.128Z,0.51
2023-03-05T01:44:51.199Z,0.51
2023-03-05T01:45:41.277Z,0.52
2023-03-05T01:46:31.303Z,0.51
2023-03-05T01:47:21.370Z,0.52
2023-03-05T01:48:11.454Z,0.52
2023-03-05T01:49:01.498Z,0.51
2023-03-05T01:49:51.602Z,0.52
2023-03-05T01:50:41.625Z,0.51
2023-03-05T01:51:31.702Z,0.51
2023-03-05T01:52:21.992Z,0.52
2023-03-05T01:53:12.076Z,0.52
2023-03-05T01:54:02.115Z,0.51
2023-03-05T01:54:52.450Z,0.52
2023-03-05T01:55:42.475Z,0.52
2023-03-05T01:56:32.558Z,0.51
2023-03-05T01:57:22.615Z,0.52
2023-03-05T01:58:12.716Z,0.53
2023-03-05T01:59:02.730Z,0.51
2023-03-05T01:59:52.785Z,0.51
2023-03-05T02:00:42.835Z,0.51
2023-03-05T02:01:32.941Z,0.52
2023-03-05T02:02:22.928Z,0.50
2023-03-05T02:03:12.982Z,0.52
2023-03-05T02:04:03.386Z,0.52
2023-03-05T02:04:53.396Z,0.52
2023-03-05T02:05:43.411Z,0.52
2023-03-05T02:06:33.483Z,0.51
2023-03-05T02:07:23.507Z,0.52
2023-03-05T02:08:13.586Z,0.52
2023-03-05T02:09:03.612Z,0.52
2023-03-05T02:09:53.706Z,0.51
2023-03-05T02:10:43.728Z,0.52
2023-03-05T02:11:33.822Z,0.52
2023-03-05T02:12:23.847Z,0.52
2023-03-05T02:13:13.879Z,0.51
2023-03-05T02:14:03.970Z,0.52
2023-03-05T02:14:54.044Z,0.52
2023-03-05T02:15:44.079Z,0.53
2023-03-05T02:16:34.213Z,0.53
2023-03-05T02:17:24.219Z,0.52
2023-03-05T02:18:14.268Z,0.52
2023-03-05T02:19:04.292Z,0.51
2023-03-05T02:19:54.551Z,0.52
2023-03-05T02:20:44.601Z,0.52
2023-03-05T02:21:34.667Z,0.53
2023-03-05T02:22:24.706Z,0.52
2023-03-05T02:23:14.772Z,0.51
2023-03-05T02:24:04.803Z,0.52
2023-03-05T02:24:54.908Z,0.52
2023-03-05T02:25:44.946Z,0.52
2023-03-05T02:26:35.006Z,0.52
2023-03-05T02:27:25.032Z,0.51
2023-03-05T02:28:15.064Z,0.50
2023-03-05T02:29:05.395Z,0.52
2023-03-05T02:29:55.512Z,0.52
2023-03-05T02:30:45.527Z,0.51
2023-03-05T02:31:35.667Z,0.52
2023-03-05T02:32:25.691Z,0.52
2023-03-05T02:33:15.713Z,0.51
2023-03-05T02:34:05.742Z,0.53
2023-03-05T02:34:55.834Z,0.51
2023-03-05T02:35:45.878Z,0.51
2023-03-05T02:36:35.934Z,0.53
2023-03-05T02:37:25.974Z,0.53
2023-03-05T02:38:16.018Z,0.52
2023-03-05T02:39:06.050Z,0.52
2023-03-05T02:39:56.097Z,0.52
2023-03-05T02:40:46.164Z,0.53
2023-03-05T02:41:36.177Z,0.52
2023-03-05T02:42:26.252Z,0.51
2023-03-05T02:43:16.337Z,0.53
2023-03-05T02:44:06.368Z,0.52
2023-03-05T02:44:56.411Z,0.52
2023-03-05T02:45:46.542Z,0.53
2023-03-05T02:46:36.513Z,0.52
2023-03-05T02:47:26.549Z,0.52
2023-03-05T02:48:16.629Z,0.53
2023-03-05T02:49:06.658Z,0.53
2023-03-05T02:49:56.749Z,0.53
2023-03-05T02:50:46.779Z,0.52
2023-03-05T02:51:37.116Z,0.54
2023-03-05T02:52:27.182Z,0.52
2023-03-05T02:53:17.256Z,0.52
2023-03-05T02:54:07.554Z,0.52
2023-03-05T02:54:57.633Z,0.51
2023-03-05T02:55:47.674Z,0.54
2023-03-05T02:56:38.001Z,0.54
2023-03-05T02:57:28.078Z,0.53
2023-03-05T02:58:18.149Z,0.52
2023-03-05T02:59:08.440Z,0.52
2023-03-05T02:59:58.566Z,0.52
2023-03-05T03:00:48.596Z,0.53
2023-03-05T03:01:38.980Z,0.53
2023-03-05T03:02:28.958Z,0.52
2023-03-05T03:03:19.135Z,0.53
2023-03-05T03:04:09.093Z,0.53
2023-03-05T03:04:59.183Z,0.52
2023-03-05T03:05:49.212Z,0.51
2023-03-05T03:06:39.255Z,0.51
2023-03-05T03:07:29.289Z,0.51
2023-03-05T03:08:19.326Z,0.52
2023-03-05T03:09:09.418Z,0.51
2023-03-05T03:09:59.476Z,0.52
2023-03-05T03:10:49.511Z,0.52
2023-03-05T03:11:39.590Z,0.52
2023-03-05T03:12:29.628Z,0.51
2023-03-05T03:13:19.670Z,0.53
2023-03-05T03:14:09.695Z,0.51
2023-03-05T03:14:59.757Z,0.51
2023-03-05T03:15:49.791Z,0.51
2023-03-05T03:16:39.900Z,0.52
2023-03-05T03:17:29.896Z,0.51
2023-03-05T03:18:19.958Z,0.52
2023-03-05T03:19:10.030Z,0.51
2023-03-05T03:20:00.131Z,0.52
2023-03-05T03:20:50.167Z,0.52
2023-03-05T03:21:40.259Z,0.51
2023-03-05T03:22:30.333Z,0.51
2023-03-05T03:23:20.334Z,0.51
2023-03-05T03:24:10.576Z,0.51
2023-03-05T03:25:00.671Z,0.50
2023-03-05T03:25:50.696Z,0.53
2023-03-05T03:26:41.037Z,0.52
2023-03-05T03:27:31.114Z,0.53
2023-03-05T03:28:21.149Z,0.53
2023-03-05T03:29:11.185Z,0.52
2023-03-05T03:30:01.268Z,0.51
2023-03-05T03:30:51.331Z,0.51
2023-03-05T03:31:41.388Z,0.52
2023-03-05T03:32:31.467Z,0.51
2023-03-05T03:33:21.467Z,0.51
2023-03-05T03:34:11.499Z,0.52
2023-03-05T03:35:01.564Z,0.52
2023-03-05T03:35:51.600Z,0.50
2023-03-05T03:36:41.651Z,0.52
2023-03-05T03:37:31.684Z,0.51
2023-03-05T03:38:21.762Z,0.52
2023-03-05T03:39:11.805Z,0.51
2023-03-05T03:40:01.950Z,0.52
2023-03-05T03:40:51.970Z,0.52
2023-03-05T03:41:42.001Z,0.51
2023-03-05T03:42:32.072Z,0.51
2023-03-05T03:43:22.114Z,0.52
2023-03-05T03:44:12.145Z,0.51
2023-03-05T03:45:02.245Z,0.51
2023-03-05T03:45:52.255Z,0.50
2023-03-05T03:46:42.294Z,0.53
2023-03-05T03:47:32.359Z,0.53
2023-03-05T03:48:22.468Z,0.52
2023-03-05T03:49:12.723Z,0.51
2023-03-05T03:50:02.816Z,0.52
2023-03-05T03:50:52.839Z,0.54
2023-03-05T03:51:42.931Z,0.52
2023-03-05T03:52:32.959Z,0.51
2023-03-05T03:53:23.001Z,0.52
2023-03-05T03:54:13.038Z,0.51
2023-03-05T03:55:03.094Z,0.52
2023-03-05T03:55:53.166Z,0.51
2023-03-05T03:56:43.213Z,0.52
2023-03-05T03:57:33.242Z,0.51
2023-03-05T03:58:23.306Z,0.51
2023-03-05T03:59:13.360Z,0.50
2023-03-05T04:00:03.448Z,0.50
2023-03-05T04:00:53.477Z,0.51
2023-03-05T04:01:43.521Z,0.52
2023-03-05T04:02:33.596Z,0.52
2023-03-05T04:03:23.628Z,0.53
2023-03-05T04:04:13.803Z,0.52
2023-03-05T04:05:03.720Z,0.52
2023-03-05T04:05:53.758Z,0.53
2023-03-05T04:06:43.844Z,0.51
2023-03-05T04:07:33.905Z,0.53
2023-03-05T04:08:23.982Z,0.53
2023-03-05T04:09:14.012Z,0.52
2023-03-05T04:10:04.110Z,0.54
2023-03-05T04:10:54.137Z,0.53
2023-03-05T04:11:44.439Z,0.53
2023-03-05T04:12:34.480Z,0.52
2023-03-05T04:13:24.559Z,0.52
2023-03-05T04:14:14.578Z,0.54
2023-03-05T04:15:04.637Z,0.53
2023-03-05T04:15:54.772Z,0.54
2023-03-05T04:16:44.736Z,0.54
2023-03-05T04:17:34.780Z,0.52
2023-03-05T04:18:24.875Z,0.53
2023-03-05T04:19:14.887Z,0.53
2023-03-05T04:20:05.002Z,0.54
2023-03-05T04:20:55.016Z,0.53
2023-03-05T04:21:45.093Z,0.53
2023-03-05T04:22:35.120Z,0.53
2023-03-05T04:23:25.200Z,0.53
2023-03-05T04:24:15.231Z,0.51
2023-03-05T04:25:05.338Z,0.54
2023-03-05T04:25:55.360Z,0.52
2023-03-05T04:26:45.431Z,0.51
2023-03-05T04:27:35.469Z,0.54
2023-03-05T04:28:25.505Z,0.53
2023-03-05T04:29:15.568Z,0.53
2023-03-05T04:30:05.660Z,0.54
2023-03-05T04:30:55.756Z,0.53
2023-03-05T04:31:45.740Z,0.53
2023-03-05T04:32:35.850Z,0.52
2023-03-05T04:33:25.849Z,0.53
2023-03-05T04:34:15.876Z,0.54
2023-03-05T04:35:05.940Z,0.53
2023-03-05T04:35:56.015Z,0.53
2023-03-05T04:36:46.037Z,0.52
2023-03-05T04:37:36.075Z,0.52
2023-03-05T04:38:26.125Z,0.52
2023-03-05T04:39:16.144Z,0.52
2023-03-05T04:40:06.205Z,0.52
2023-03-05T04:40:56.238Z,0.54
2023-03-05T04:41:46.268Z,0.52
2023-03-05T04:42:36.302Z,0.53
2023-03-05T04:43:26.376Z,0.51
2023-03-05T04:44:16.402Z,0.53
2023-03-05T04:45:06.500Z,0.52
2023-03-05T04:45:56.527Z,0.51
2023-03-05T04:46:46.651Z,0.52
2023-03-05T04:47:36.648Z,0.51
2023-03-05T04:48:26.731Z,0.52
2023-03-05T04:49:16.763Z,0.52
2023-03-05T04:50:06.851Z,0.52
2023-03-05T04:50:56.882Z,0.52
2023-03-05T04:51:46.976Z,0.52
2023-03-05T04:52:37.023Z,0.51
2023-03-05T04:53:27.069Z,0.51
2023-03-05T04:54:17.107Z,0.52
2023-03-05T04:55:07.162Z,0.52
2023-03-05T04:55:57.193Z,0.52
2023-03-05T04:56:47.277Z,0.53
2023-03-05T04:57:37.305Z,0.52
2023-03-05T04:58:27.384Z,0.51
2023-03-05T04:59:17.414Z,0.52
2023-03-05T05:00:07.469Z,0.51
2023-03-05T05:00:57.497Z,0.51
2023-03-05T05:01:47.636Z,0.52
2023-03-05T05:02:37.687Z,0.51
2023-03-05T05:03:27.670Z,0.51
2023-03-05T05:04:17.744Z,0.51
2023-03-05T05:05:07.832Z,0.51
2023-03-05T05:05:57.854Z,0.50
2023-03-05T05:06:47.941Z,0.51
2023-03-05T05:07:38.254Z,0.51
2023-03-05T05:08:28.310Z,0.51
2023-03-05T05:09:18.341Z,0.52
2023-03-05T05:10:08.399Z,0.52
2023-03-05T05:10:58.427Z,0.52
2023-03-05T05:11:48.497Z,0.51
2023-03-05T05:12:38.576Z,0.51
2023-03-05T05:13:28.655Z,0.52
2023-03-05T05:14:18.701Z,0.52
2023-03-05T05:15:08.770Z,0.51
2023-03-05T05:15:58.834Z,0.51
2023-03-05T05:16:49.114Z,0.52
2023-03-05T05:17:39.146Z,0.52
2023-03-05T05:18:29.227Z,0.52
2023-03-05T05:19:19.615Z,0.51
2023-03-05T05:20:09.637Z,0.52
2023-03-05T05:20:59.679Z,0.52
2023-03-05T05:21:49.760Z,0.52
2023-03-05T05:22:39.784Z,0.52
2023-03-05T05:23:29.866Z,0.52
2023-03-05T05:24:19.916Z,0.53
2023-03-05T05:25:10.013Z,0.52
2023-03-05T05:26:00.103Z,0.51
2023-03-05T05:26:50.139Z,0.53
2023-03-05T05:27:40.187Z,0.52
2023-03-05T05:28:30.228Z,0.53
2023-03-05T05:29:20.263Z,0.53
2023-03-05T05:30:10.334Z,0.52
2023-03-05T05:31:00.371Z,0.52
2023-03-05T05:31:50.430Z,0.52
2023-03-05T05:32:40.540Z,0.52
2023-03-05T05:33:30.544Z,0.53
2023-03-05T05:34:20.573Z,0.52
2023-03-05T05:35:10.695Z,0.53
2023-03-05T05:36:00.778Z,0.53
2023-03-05T05:36:50.790Z,0.53
2023-03-05T05:37:40.822Z,0.53
2023-03-05T05:38:30.868Z,0.52
2023-03-05T05:39:20.965Z,0.54
2023-03-05T05:40:11.046Z,0.53
2023-03-05T05:41:01.069Z,0.51
2023-03-05T05:41:51.409Z,0.52
2023-03-05T05:42:41.448Z,0.53
2023-03-05T05:43:31.506Z,0.52
2023-03-05T05:44:21.538Z,0.53
2023-03-05T05:45:11.672Z,0.52
2023-03-05T05:46:01.806Z,0.53
2023-03-05T05:46:51.717Z,0.52
2023-03-05T05:47:41.758Z,0.52
2023-03-05T05:48:31.795Z,0.52
2023-03-05T05:49:21.831Z,0.53
2023-03-05T05:50:11.935Z,0.52
2023-03-05T05:51:01.973Z,0.52
2023-03-05T05:51:52.052Z,0.52
2023-03-05T05:52:42.082Z,0.51
2023-03-05T05:53:32.158Z,0.51
2023-03-05T05:54:22.188Z,0.51
2023-03-05T05:55:12.309Z,0.52
2023-03-05T05:56:02.308Z,0.51
2023-03-05T05:56:52.389Z,0.52
2023-03-05T05:57:42.681Z,0.51
2023-03-05T05:58:32.757Z,0.51
2023-03-05T05:59:22.796Z,0.53
2023-03-05T06:00:13.157Z,0.53
2023-03-05T06:01:03.177Z,0.53
2023-03-05T06:01:53.314Z,0.53
2023-03-05T06:02:43.390Z,0.52
2023-03-05T06:03:33.331Z,0.53
2023-03-05T06:04:23.400Z,0.52
2023-03-05T06:05:13.465Z,0.52
2023-03-05T06:06:03.493Z,0.53
2023-03-05T06:06:53.623Z,0.53
2023-03-05T06:07:43.688Z,0.52
2023-03-05T06:08:33.726Z,0.52
2023-03-05T06:09:23.760Z,0.53
2023-03-05T06:10:13.871Z,0.52
2023-03-05T06:11:03.873Z,0.53
2023-03-05T06:11:53.946Z,0.51
2023-03-05T06:12:43.982Z,0.53
2023-03-05T06:13:34.035Z,0.52
2023-03-05T06:14:24.096Z,0.52
2023-03-05T06:15:14.124Z,0.53
2023-03-05T06:16:04.320Z,0.52
2023-03-05T06:16:54.269Z,0.54
2023-03-05T06:17:44.283Z,0.53
2023-03-05T06:18:34.364Z,0.54
2023-03-05T06:19:24.403Z,0.51
2023-03-05T06:20:14.586Z,0.52
2023-03-05T06:21:04.633Z,0.52
2023-03-05T06:21:54.666Z,0.52
2023-03-05T06:22:44.706Z,0.51
2023-03-05T06:23:34.754Z,0.53
2023-03-05T06:24:24.789Z,0.52
2023-03-05T06:25:14.850Z,0.52
2023-03-05T06:26:04.909Z,0.52
2023-03-05T06:26:54.979Z,0.52
2023-03-05T06:27:45.010Z,0.51
2023-03-05T06:28:35.050Z,0.52
2023-03-05T06:29:25.086Z,0.52
2023-03-05T06:30:15.154Z,0.51
2023-03-05T06:31:05.263Z,0.50
2023-03-05T06:31:55.236Z,0.52
2023-03-05T06:32:45.272Z,0.51
2023-03-05T06:33:35.362Z,0.52
2023-03-05T06:34:25.401Z,0.52
2023-03-05T06:35:15.475Z,0.51
2023-03-05T06:36:05.507Z,0.51
2023-03-05T06:36:55.558Z,0.52
2023-03-05T06:37:45.594Z,0.51
2023-03-05T06:38:35.633Z,0.52
2023-03-05T06:39:25.669Z,0.52
2023-03-05T06:40:15.797Z,0.52
2023-03-05T06:41:05.813Z,0.53
2023-03-05T06:41:55.910Z,0.53
2023-03-05T06:42:45.918Z,0.52
2023-03-05T06:43:36.007Z,0.53
2023-03-05T06:44:26.032Z,0.52
2023-03-05T06:45:16.093Z,0.53
2023-03-05T06:46:06.199Z,0.52
2023-03-05T06:46:56.224Z,0.51
2023-03-05T06:47:46.234Z,0.52
2023-03-05T06:48:36.320Z,0.53
2023-03-05T06:49:26.360Z,0.53
2023-03-05T06:50:16.410Z,0.51
2023-03-05T06:51:06.438Z,0.53
2023-03-05T06:51:56.535Z,0.51
2023-03-05T06:52:46.551Z,0.52
2023-03-05T06:53:36.628Z,0.53
2023-03-05T06:54:26.678Z,0.52
2023-03-05T06:55:16.742Z,0.53
2023-03-05T06:56:06.757Z,0.53
2023-03-05T06:56:56.836Z,0.52
2023-03-05T06:57:46.900Z,0.52
2023-03-05T06:58:36.920Z,0.53
2023-03-05T06:59:26.946Z,0.52
2023-03-05T07:00:17.017Z,0.53
2023-03-05T07:01:07.069Z,0.52
2023-03-05T07:01:57.096Z,0.53
2023-03-05T07:02:47.207Z,0.52
2023-03-05T07:03:37.195Z,0.52
2023-03-05T07:04:27.216Z,0.53
2023-03-05T07:05:17.320Z,0.53
2023-03-05T07:06:07.361Z,0.53
2023-03-05T07:06:57.426Z,0.52
2023-03-05T07:07:47.458Z,0.53
2023-03-05T07:08:37.492Z,0.53
2023-03-05T07:09:27.527Z,0.53
2023-03-05T07:10:17.627Z,0.53
2023-03-05T07:11:07.669Z,0.53
2023-03-05T07:11:57.720Z,0.53
2023-03-05T07:12:47.745Z,0.53
2023-03-05T07:13:37.828Z,0.52
2023-03-05T07:14:27.834Z,0.52
2023-03-05T07:15:17.903Z,0.53
2023-03-05T07:16:08.020Z,0.52
2023-03-05T07:16:57.976Z,0.54
2023-03-05T07:17:48.016Z,0.54
2023-03-05T07:18:38.099Z,0.52
2023-03-05T07:19:28.125Z,0.51
2023-03-05T07:20:18.266Z,0.52
2023-03-05T07:21:08.299Z,0.53
2023-03-05T07:21:58.370Z,0.52
2023-03-05T07:22:48.397Z,0.52
2023-03-05T07:23:38.485Z,0.52
2023-03-05T07:24:28.517Z,0.52
2023-03-05T07:25:18.574Z,0.52
2023-03-05T07:26:08.624Z,0.53
2023-03-05T07:26:58.662Z,0.52
2023-03-05T07:27:48.676Z,0.52
2023-03-05T07:28:38.757Z,0.52
2023-03-05T07:29:28.815Z,0.50
2023-03-05T07:30:18.844Z,0.52
2023-03-05T07:31:08.953Z,0.51
2023-03-05T07:31:58.982Z,0.52
2023-03-05T07:32:48.981Z,0.51
2023-03-05T07:33:39.064Z,0.51
2023-03-05T07:34:29.114Z,0.50
2023-03-05T07:35:19.224Z,0.51
2023-03-05T07:36:09.191Z,0.51
2023-03-05T07:36:59.272Z,0.53
2023-03-05T07:37:49.326Z,0.51
2023-03-05T07:38:39.371Z,0.52
2023-03-05T07:39:29.390Z,0.52
2023-03-05T07:40:19.484Z,0.52
2023-03-05T07:41:09.520Z,0.50
2023-03-05T07:41:59.593Z,0.51
2023-03-05T07:42:49.889Z,0.52
2023-03-05T07:43:39.928Z,0.52
2023-03-05T07:44:29.968Z,0.52
2023-03-05T07:45:20.194Z,0.52
2023-03-05T07:46:10.149Z,0.54
2023-03-05T07:47:00.173Z,0.53
2023-03-05T07:47:52.494Z,0.53
2023-03-05T07:48:40.272Z,0.51
2023-03-05T07:49:30.334Z,0.53
2023-03-05T07:50:20.483Z,0.52
2023-03-05T07:51:10.519Z,0.52
2023-03-05T07:52:00.585Z,0.52
2023-03-05T07:52:50.912Z,0.51
2023-03-05T07:53:40.990Z,0.52
2023-03-05T07:54:31.056Z,0.51
2023-03-05T07:55:21.127Z,0.52
2023-03-05T07:56:11.169Z,0.53
2023-03-05T07:57:01.216Z,0.53
2023-03-05T07:57:51.238Z,0.53
2023-03-05T07:58:41.324Z,0.53
2023-03-05T07:59:31.355Z,0.52
2023-03-05T08:00:21.478Z,0.51
2023-03-05T08:01:13.309Z,0.53
2023-03-05T08:02:01.527Z,0.54
2023-03-05T08:02:51.658Z,0.53
2023-03-05T08:03:41.794Z,0.53
2023-03-05T08:04:31.754Z,0.53
2023-03-05T08:05:21.783Z,0.55
2023-03-05T08:06:11.856Z,0.54
2023-03-05T08:07:01.935Z,0.53
2023-03-05T08:07:51.974Z,0.53
2023-03-05T08:08:42.013Z,0.54
2023-03-05T08:09:32.053Z,0.53
2023-03-05T08:10:22.112Z,0.52
2023-03-05T08:11:12.144Z,0.52
2023-03-05T08:12:02.178Z,0.52
2023-03-05T08:12:52.250Z,0.54
2023-03-05T08:13:42.287Z,0.53
2023-03-05T08:14:32.328Z,0.53
2023-03-05T08:15:22.392Z,0.54
2023-03-05T08:16:12.537Z,0.54
2023-03-05T08:17:02.515Z,0.52
2023-03-05T08:17:52.551Z,0.53
2023-03-05T08:18:42.599Z,0.53
2023-03-05T08:19:32.671Z,0.52
2023-03-05T08:20:22.745Z,0.53
2023-03-05T08:21:12.777Z,0.52
2023-03-05T08:22:02.880Z,0.53
2023-03-05T08:22:52.893Z,0.52
2023-03-05T08:23:42.941Z,0.52
2023-03-05T08:24:32.970Z,0.52
2023-03-05T08:25:23.072Z,0.53
2023-03-05T08:26:13.101Z,0.53
2023-03-05T08:27:03.178Z,0.52
2023-03-05T08:27:53.210Z,0.52
2023-03-05T08:28:43.546Z,0.53
2023-03-05T08:29:33.583Z,0.52
2023-03-05T08:30:23.638Z,0.53
2023-03-05T08:31:13.695Z,0.52
2023-03-05T08:32:03.824Z,0.53
2023-03-05T08:32:53.800Z,0.53
2023-03-05T08:33:43.831Z,0.55
2023-03-05T08:34:33.865Z,0.53
2023-03-05T08:35:24.006Z,0.55
2023-03-05T08:36:14.008Z,0.56
2023-03-05T08:37:04.058Z,0.56
2023-03-05T08:37:54.091Z,0.57
2023-03-05T08:38:44.137Z,0.55
2023-03-05T08:39:34.169Z,0.56
2023-03-05T08:40:24.333Z,0.56
2023-03-05T08:41:14.269Z,0.58
2023-03-05T08:42:04.338Z,0.58
2023-03-05T08:42:54.367Z,0.56
2023-03-05T08:43:44.448Z,0.57
2023-03-05T08:44:34.486Z,0.58
2023-03-05T08:45:24.548Z,0.56
2023-03-05T08:46:14.611Z,0.56
2023-03-05T08:47:04.643Z,0.55
2023-03-05T08:47:54.691Z,0.55
2023-03-05T08:48:44.773Z,0.55
2023-03-05T08:49:34.793Z,0.54
2023-03-05T08:50:24.852Z,0.55
2023-03-05T08:51:14.901Z,0.55
2023-03-05T08:52:04.931Z,0.54
2023-03-05T08:52:54.958Z,0.52
2023-03-05T08:53:44.999Z,0.56
2023-03-05T08:54:35.037Z,0.55
2023-03-05T08:55:25.136Z,0.55
2023-03-05T08:56:15.180Z,0.54
2023-03-05T08:57:05.224Z,0.53
2023-03-05T08:57:55.254Z,0.55
2023-03-05T08:58:45.300Z,0.56
2023-03-05T08:59:35.335Z,0.56
2023-03-05T09:00:25.425Z,0.57
2023-03-05T09:01:15.443Z,0.57
2023-03-05T09:02:05.607Z,0.56
2023-03-05T09:02:55.678Z,0.56
2023-03-05T09:03:45.674Z,0.58
2023-03-05T09:04:35.682Z,0.56
2023-03-05T09:05:25.760Z,0.55
2023-03-05T09:06:15.760Z,0.56
2023-03-05T09:07:05.856Z,0.56
2023-03-05T09:07:55.864Z,0.56
2023-03-05T09:08:45.952Z,0.57
2023-03-05T09:09:36.001Z,0.56
2023-03-05T09:10:26.101Z,0.58
2023-03-05T09:11:16.345Z,0.57
2023-03-05T09:12:06.419Z,0.58
2023-03-05T09:12:56.458Z,0.57
2023-03-05T09:13:46.507Z,0.58
2023-03-05T09:14:36.535Z,0.59
2023-03-05T09:15:26.662Z,0.59
2023-03-05T09:16:16.698Z,0.56
2023-03-05T09:17:06.734Z,0.56
2023-03-05T09:17:56.772Z,0.56
2023-03-05T09:18:46.869Z,0.56
2023-03-05T09:19:36.901Z,0.55
2023-03-05T09:20:27.199Z,0.58
2023-03-05T09:21:17.238Z,0.56
2023-03-05T09:22:07.277Z,0.58
2023-03-05T09:22:57.336Z,0.57
2023-03-05T09:23:47.441Z,0.55
2023-03-05T09:24:37.422Z,0.56
2023-03-05T09:25:27.505Z,0.54
2023-03-05T09:26:17.538Z,0.54
2023-03-05T09:27:07.589Z,0.55
2023-03-05T09:27:57.626Z,0.54
2023-03-05T09:28:47.663Z,0.55
2023-03-05T09:29:37.693Z,0.56
2023-03-05T09:30:27.773Z,0.57
2023-03-05T09:31:17.909Z,0.56
2023-03-05T09:32:08.059Z,0.55
2023-03-05T09:32:57.947Z,0.55
2023-03-05T09:33:47.982Z,0.54
2023-03-05T09:34:38.011Z,0.56
2023-03-05T09:35:28.131Z,0.56
2023-03-05T09:36:18.149Z,0.56
2023-03-05T09:37:08.190Z,0.57
2023-03-05T09:37:58.215Z,0.58
2023-03-05T09:38:48.269Z,0.56
2023-03-05T09:39:38.316Z,0.55
2023-03-05T09:40:28.387Z,0.55
2023-03-05T09:41:18.435Z,0.55
2023-03-05T09:42:10.224Z,0.53
2023-03-05T09:42:58.544Z,0.55
2023-03-05T09:43:48.639Z,0.57
2023-03-05T09:44:38.662Z,0.57
2023-03-05T09:45:28.762Z,0.58
2023-03-05T09:46:18.784Z,0.57
2023-03-05T09:47:08.811Z,0.58
2023-03-05T09:47:58.843Z,0.56
2023-03-05T09:48:48.888Z,0.55
2023-03-05T09:49:38.927Z,0.56
2023-03-05T09:50:28.964Z,0.55
2023-03-05T09:51:19.034Z,0.54
2023-03-05T09:52:09.047Z,0.54
2023-03-05T09:52:59.087Z,0.52
2023-03-05T09:53:49.168Z,0.51
2023-03-05T09:54:39.208Z,0.51
2023-03-05T09:55:29.244Z,0.53
2023-03-05T09:56:19.305Z,0.59
2023-03-05T09:57:09.335Z,0.61
2023-03-05T09:57:59.370Z,0.63
2023-03-05T09:58:49.449Z,0.67
2023-03-05T09:59:39.485Z,0.72
2023-03-05T10:00:29.567Z,0.74
2023-03-05T10:01:19.625Z,0.76
2023-03-05T10:02:09.680Z,0.81
2023-03-05T10:02:59.760Z,0.84
2023-03-05T10:03:49.800Z,0.82
2023-03-05T10:04:39.826Z,0.87
2023-03-05T10:05:29.865Z,0.88
2023-03-05T10:06:19.913Z,0.90
2023-03-05T10:07:10.013Z,0.92
2023-03-05T10:08:00.067Z,0.95
2023-03-05T10:08:50.159Z,0.93
2023-03-05T10:09:40.436Z,0.92
2023-03-05T10:10:30.485Z,0.89
2023-03-05T10:11:20.533Z,0.90
2023-03-05T10:12:10.571Z,0.88
2023-03-05T10:13:00.609Z,0.84
2023-03-05T10:13:50.653Z,0.83
2023-03-05T10:14:40.687Z,0.83
2023-03-05T10:15:32.021Z,0.80
2023-03-05T10:16:20.898Z,0.83
2023-03-05T10:17:10.853Z,0.84
2023-03-05T10:18:00.896Z,1.25
2023-03-05T10:18:50.928Z,1.36
2023-03-05T10:19:40.969Z,1.44
2023-03-05T10:20:31.019Z,1.44
2023-03-05T10:21:21.063Z,2.31
2023-03-05T10:22:11.150Z,2.54
2023-03-05T10:23:01.224Z,2.79
2023-03-05T10:23:51.231Z,2.64
2023-03-05T10:24:41.276Z,2.33
2023-03-05T10:25:31.325Z,2.63
2023-03-05T10:26:21.360Z,2.77
2023-03-05T10:27:11.431Z,2.53
2023-03-05T10:28:01.502Z,2.66
2023-03-05T10:28:51.550Z,2.57
2023-03-05T10:29:41.603Z,3.69
2023-03-05T10:30:31.627Z,3.16
2023-03-05T10:31:21.729Z,3.09
2023-03-05T10:32:11.899Z,2.70
2023-03-05T10:33:01.814Z,2.71
2023-03-05T10:33:51.851Z,2.50
2023-03-05T10:34:41.895Z,2.53
2023-03-05T10:35:31.933Z,2.26
2023-03-05T10:36:22.194Z,2.43
2023-03-05T10:37:12.223Z,2.50
2023-03-05T10:38:02.273Z,2.27
2023-03-05T10:38:52.345Z,2.22
2023-03-05T10:39:42.353Z,2.19
2023-03-05T10:40:32.402Z,2.17
2023-03-05T10:41:22.437Z,2.25
2023-03-05T10:42:12.480Z,2.20
2023-03-05T10:43:02.561Z,2.07
2023-03-05T10:43:52.606Z,1.96
2023-03-05T10:44:42.649Z,2.03
2023-03-05T10:45:32.720Z,2.03
2023-03-05T10:46:22.757Z,1.88
2023-03-05T10:47:12.787Z,1.82
2023-03-05T10:48:02.895Z,1.92
2023-03-05T10:48:52.914Z,1.82
2023-03-05T10:49:42.947Z,1.61
2023-03-05T10:50:32.974Z,1.65
2023-03-05T10:51:23.081Z,1.56
2023-03-05T10:52:13.091Z,1.58
2023-03-05T10:53:03.176Z,1.50
2023-03-05T10:53:53.217Z,1.44
2023-03-05T10:54:43.278Z,1.43
2023-03-05T10:55:33.287Z,1.40
2023-03-05T10:56:23.333Z,1.37
2023-03-05T10:57:13.373Z,1.36
2023-03-05T10:58:03.412Z,1.36
2023-03-05T10:58:53.467Z,1.21
2023-03-05T10:59:43.493Z,1.18
2023-03-05T11:00:33.569Z,1.12
2023-03-05T11:01:23.727Z,1.11
2023-03-05T11:02:13.716Z,1.11
2023-03-05T11:03:03.738Z,1.06
2023-03-05T11:03:53.779Z,1.08
2023-03-05T11:04:43.807Z,1.10
2023-03-05T11:05:33.886Z,1.08
2023-03-05T11:06:23.949Z,1.15